UAL467 KORD-KMSP
Flight info
| Callsign | UAL467 |
|---|---|
| Flight time | 1h 1m |
| Altitude | 32000 |
| Route | PMPKN NEATO DLLAN RONIC KAMMA KKILR4 |
| Aircraft | A319/M-SDE3FGHIRWY/LB1 |
Departure
| Time | 2026-05-06 03:28 |
|---|---|
| Airport | Chicago O'Hare International Airport (KORD) |
Arrival
| Time | 2026-05-06 04:30 |
|---|---|
| Airport | Minneapolis–Saint Paul International Airport / Wold–Chamberlain Field (KMSP) |
| Time | Latitude | Longitude | Altitude | Speed | Heading |
|---|---|---|---|---|---|
| 2026-05-06 03:10 | 41.98141 | -87.90959 | 669 ft | 0 kts | 210° |
| 2026-05-06 03:20 | 41.98156 | -87.90947 | 667 ft | 3 kts | 210° |
| 2026-05-06 03:21 | 41.98173 | -87.90939 | 669 ft | 3 kts | 173° |
| 2026-05-06 03:21 | 41.98188 | -87.90949 | 669 ft | 2 kts | 105° |
| 2026-05-06 03:21 | 41.98188 | -87.90952 | 669 ft | 0 kts | 105° |
| 2026-05-06 03:24 | 41.98190 | -87.90940 | 667 ft | 3 kts | 79° |
| 2026-05-06 03:24 | 41.98215 | -87.90894 | 667 ft | 8 kts | 50° |
| 2026-05-06 03:24 | 41.98259 | -87.90827 | 669 ft | 11 kts | 53° |
| 2026-05-06 03:25 | 41.98283 | -87.90714 | 668 ft | 14 kts | 81° |
| 2026-05-06 03:25 | 41.98288 | -87.90566 | 668 ft | 17 kts | 90° |
| 2026-05-06 03:25 | 41.98288 | -87.90397 | 668 ft | 19 kts | 90° |
| 2026-05-06 03:25 | 41.98289 | -87.90209 | 669 ft | 21 kts | 90° |
| 2026-05-06 03:26 | 41.98288 | -87.90002 | 670 ft | 23 kts | 90° |
| 2026-05-06 03:26 | 41.98288 | -87.89777 | 670 ft | 25 kts | 90° |
| 2026-05-06 03:26 | 41.98287 | -87.89536 | 670 ft | 23 kts | 91° |
| 2026-05-06 03:26 | 41.98288 | -87.89383 | 670 ft | 8 kts | 86° |
| 2026-05-06 03:27 | 41.98331 | -87.89380 | 670 ft | 8 kts | 328° |
| 2026-05-06 03:27 | 41.98384 | -87.89435 | 670 ft | 11 kts | 304° |
| 2026-05-06 03:27 | 41.98389 | -87.89582 | 672 ft | 31 kts | 270° |
| 2026-05-06 03:27 | 41.98389 | -87.90165 | 670 ft | 93 kts | 270° |
| 2026-05-06 03:28 | 41.98389 | -87.91281 | 672 ft | 147 kts | 270° |
| 2026-05-06 03:28 | 41.98393 | -87.92724 | 1170 ft | 153 kts | 271° |
| 2026-05-06 03:28 | 41.98390 | -87.94149 | 1884 ft | 152 kts | 274° |
| 2026-05-06 03:28 | 41.98382 | -87.95553 | 2534 ft | 154 kts | 283° |
| 2026-05-06 03:29 | 41.98901 | -87.96857 | 2876 ft | 170 kts | 320° |
| 2026-05-06 03:29 | 42.00047 | -87.97564 | 3116 ft | 202 kts | 351° |
| 2026-05-06 03:29 | 42.01578 | -87.97569 | 3512 ft | 233 kts | 3° |
| 2026-05-06 03:29 | 42.03239 | -87.97301 | 4359 ft | 247 kts | 7° |
| 2026-05-06 03:30 | 42.04966 | -87.96938 | 5399 ft | 254 kts | 7° |
| 2026-05-06 03:30 | 42.06716 | -87.96584 | 6419 ft | 260 kts | 7° |
| 2026-05-06 03:30 | 42.08528 | -87.96259 | 7358 ft | 266 kts | 4° |
| 2026-05-06 03:30 | 42.10403 | -87.95965 | 8241 ft | 275 kts | 2° |
| 2026-05-06 03:31 | 42.12342 | -87.95693 | 9127 ft | 284 kts | 0° |
| 2026-05-06 03:31 | 42.14340 | -87.95434 | 9969 ft | 292 kts | 359° |
| 2026-05-06 03:31 | 42.16392 | -87.95183 | 10477 ft | 311 kts | 359° |
| 2026-05-06 03:31 | 42.18617 | -87.94921 | 10961 ft | 328 kts | 359° |
| 2026-05-06 03:32 | 42.20914 | -87.94641 | 11713 ft | 333 kts | 359° |
| 2026-05-06 03:32 | 42.23245 | -87.94350 | 12510 ft | 339 kts | 358° |
| 2026-05-06 03:32 | 42.25609 | -87.94054 | 13301 ft | 344 kts | 358° |
| 2026-05-06 03:32 | 42.28014 | -87.93753 | 14029 ft | 349 kts | 358° |
| 2026-05-06 03:33 | 42.30450 | -87.93470 | 14706 ft | 351 kts | 354° |
| 2026-05-06 03:33 | 42.32882 | -87.93603 | 15381 ft | 350 kts | 347° |
| 2026-05-06 03:33 | 42.35287 | -87.93890 | 16066 ft | 353 kts | 346° |
| 2026-05-06 03:33 | 42.37753 | -87.94191 | 16754 ft | 358 kts | 346° |
| 2026-05-06 03:34 | 42.40246 | -87.94496 | 17448 ft | 362 kts | 346° |
| 2026-05-06 03:34 | 42.42780 | -87.94803 | 18107 ft | 367 kts | 346° |
| 2026-05-06 03:34 | 42.45346 | -87.95109 | 18694 ft | 372 kts | 346° |
| 2026-05-06 03:34 | 42.47939 | -87.95417 | 19281 ft | 375 kts | 346° |
| 2026-05-06 03:35 | 42.50519 | -87.95729 | 19881 ft | 379 kts | 345° |
| 2026-05-06 03:35 | 42.53160 | -87.96053 | 20478 ft | 382 kts | 345° |
| 2026-05-06 03:35 | 42.55827 | -87.96383 | 21065 ft | 386 kts | 345° |
| 2026-05-06 03:35 | 42.58519 | -87.96716 | 21645 ft | 390 kts | 345° |
| 2026-05-06 03:36 | 42.61233 | -87.97054 | 22233 ft | 394 kts | 345° |
| 2026-05-06 03:36 | 42.63948 | -87.97369 | 22781 ft | 399 kts | 346° |
| 2026-05-06 03:36 | 42.66739 | -87.97614 | 23344 ft | 404 kts | 347° |
| 2026-05-06 03:36 | 42.69570 | -87.97829 | 23832 ft | 406 kts | 345° |
| 2026-05-06 03:37 | 42.72325 | -87.98457 | 24304 ft | 397 kts | 334° |
| 2026-05-06 03:37 | 42.74896 | -87.99704 | 24766 ft | 387 kts | 324° |
| 2026-05-06 03:37 | 42.77238 | -88.01453 | 25234 ft | 383 kts | 319° |
| 2026-05-06 03:37 | 42.79519 | -88.03252 | 25692 ft | 385 kts | 319° |
| 2026-05-06 03:38 | 42.81849 | -88.05089 | 26163 ft | 388 kts | 319° |
| 2026-05-06 03:38 | 42.84203 | -88.06940 | 26615 ft | 391 kts | 319° |
| 2026-05-06 03:38 | 42.86571 | -88.08796 | 27066 ft | 394 kts | 318° |
| 2026-05-06 03:38 | 42.88958 | -88.10663 | 27524 ft | 396 kts | 318° |
| 2026-05-06 03:39 | 42.91359 | -88.12539 | 27979 ft | 399 kts | 318° |
| 2026-05-06 03:39 | 42.93745 | -88.14405 | 28429 ft | 402 kts | 318° |
| 2026-05-06 03:39 | 42.96189 | -88.16318 | 28888 ft | 405 kts | 317° |
| 2026-05-06 03:39 | 42.98641 | -88.18237 | 29314 ft | 407 kts | 317° |
| 2026-05-06 03:40 | 43.01114 | -88.20174 | 29811 ft | 410 kts | 317° |
| 2026-05-06 03:40 | 43.03592 | -88.22114 | 30258 ft | 411 kts | 317° |
| 2026-05-06 03:40 | 43.06080 | -88.24065 | 30675 ft | 412 kts | 317° |
| 2026-05-06 03:40 | 43.08539 | -88.25999 | 31063 ft | 413 kts | 317° |
| 2026-05-06 03:41 | 43.10928 | -88.28112 | 31447 ft | 401 kts | 309° |
| 2026-05-06 03:41 | 43.12955 | -88.30649 | 31812 ft | 388 kts | 301° |
| 2026-05-06 03:41 | 43.14662 | -88.33461 | 31927 ft | 379 kts | 297° |
| 2026-05-06 03:41 | 43.16292 | -88.36224 | 31947 ft | 365 kts | 297° |
| 2026-05-06 03:42 | 43.17840 | -88.38839 | 31942 ft | 351 kts | 297° |
| 2026-05-06 03:42 | 43.19355 | -88.41401 | 31938 ft | 341 kts | 297° |
| 2026-05-06 03:42 | 43.22295 | -88.46432 | 31973 ft | 336 kts | 297° |
| 2026-05-06 03:43 | 43.25198 | -88.51461 | 31920 ft | 336 kts | 297° |
| 2026-05-06 03:43 | 43.28096 | -88.56466 | 31925 ft | 337 kts | 298° |
| 2026-05-06 03:44 | 43.31030 | -88.61490 | 31956 ft | 337 kts | 298° |
| 2026-05-06 03:44 | 43.33964 | -88.66523 | 31961 ft | 337 kts | 298° |
| 2026-05-06 03:45 | 43.36886 | -88.71554 | 31959 ft | 336 kts | 298° |
| 2026-05-06 03:45 | 43.39786 | -88.76557 | 31958 ft | 336 kts | 298° |
| 2026-05-06 03:46 | 43.42704 | -88.81601 | 32003 ft | 336 kts | 298° |
| 2026-05-06 03:46 | 43.45601 | -88.86610 | 31993 ft | 336 kts | 298° |
| 2026-05-06 03:47 | 43.48523 | -88.91671 | 31965 ft | 337 kts | 298° |
| 2026-05-06 03:47 | 43.51441 | -88.96744 | 31951 ft | 338 kts | 298° |
| 2026-05-06 03:48 | 43.54344 | -89.01799 | 31938 ft | 338 kts | 298° |
| 2026-05-06 03:48 | 43.57266 | -89.06893 | 31926 ft | 338 kts | 298° |
| 2026-05-06 03:49 | 43.60187 | -89.11991 | 31932 ft | 339 kts | 298° |
| 2026-05-06 03:49 | 43.63093 | -89.17067 | 31971 ft | 339 kts | 298° |
| 2026-05-06 03:50 | 43.66006 | -89.22181 | 31960 ft | 339 kts | 298° |
| 2026-05-06 03:50 | 43.68923 | -89.27300 | 31971 ft | 339 kts | 298° |
| 2026-05-06 03:51 | 43.71837 | -89.32419 | 31960 ft | 338 kts | 298° |
| 2026-05-06 03:51 | 43.74729 | -89.37511 | 31949 ft | 338 kts | 298° |
| 2026-05-06 03:52 | 43.77637 | -89.42640 | 31947 ft | 338 kts | 298° |
| 2026-05-06 03:52 | 43.80536 | -89.47780 | 31945 ft | 338 kts | 298° |
| 2026-05-06 03:53 | 43.83430 | -89.52912 | 31973 ft | 338 kts | 298° |
| 2026-05-06 03:53 | 43.86306 | -89.58012 | 31967 ft | 337 kts | 298° |
| 2026-05-06 03:54 | 43.89186 | -89.63136 | 31961 ft | 336 kts | 298° |
| 2026-05-06 03:54 | 43.92062 | -89.68262 | 31955 ft | 336 kts | 298° |
| 2026-05-06 03:55 | 43.94913 | -89.73342 | 31946 ft | 335 kts | 298° |
| 2026-05-06 03:55 | 43.97784 | -89.78460 | 31940 ft | 335 kts | 298° |
| 2026-05-06 03:56 | 44.00641 | -89.83582 | 31936 ft | 335 kts | 298° |
| 2026-05-06 03:56 | 44.03480 | -89.88673 | 31983 ft | 335 kts | 297° |
| 2026-05-06 03:57 | 44.06329 | -89.93786 | 31971 ft | 333 kts | 297° |
| 2026-05-06 03:57 | 44.09188 | -89.98863 | 31968 ft | 333 kts | 298° |
| 2026-05-06 03:58 | 44.12116 | -90.03834 | 31956 ft | 334 kts | 299° |
| 2026-05-06 03:58 | 44.15072 | -90.08821 | 31953 ft | 334 kts | 299° |
| 2026-05-06 03:59 | 44.18011 | -90.13826 | 31946 ft | 333 kts | 298° |
| 2026-05-06 03:59 | 44.20918 | -90.18814 | 31935 ft | 333 kts | 298° |
| 2026-05-06 04:00 | 44.23836 | -90.23843 | 31981 ft | 333 kts | 298° |
| 2026-05-06 04:00 | 44.26749 | -90.28856 | 31975 ft | 331 kts | 298° |
| 2026-05-06 04:01 | 44.29627 | -90.33824 | 31970 ft | 330 kts | 298° |
| 2026-05-06 04:01 | 44.32516 | -90.38809 | 31972 ft | 329 kts | 298° |
| 2026-05-06 04:02 | 44.35137 | -90.43958 | 31967 ft | 316 kts | 287° |
| 2026-05-06 04:02 | 44.36804 | -90.49553 | 31960 ft | 313 kts | 285° |
| 2026-05-06 04:03 | 44.38471 | -90.55193 | 31955 ft | 313 kts | 285° |
| 2026-05-06 04:03 | 44.40131 | -90.60827 | 31949 ft | 313 kts | 284° |
| 2026-05-06 04:04 | 44.41779 | -90.66417 | 31946 ft | 312 kts | 284° |
| 2026-05-06 04:04 | 44.43440 | -90.72043 | 31969 ft | 312 kts | 284° |
| 2026-05-06 04:05 | 44.45105 | -90.77651 | 31958 ft | 312 kts | 285° |
| 2026-05-06 04:05 | 44.46765 | -90.83267 | 31768 ft | 318 kts | 285° |
| 2026-05-06 04:06 | 44.47610 | -90.86133 | 31510 ft | 318 kts | 285° |
| 2026-05-06 04:06 | 44.48453 | -90.88989 | 31262 ft | 316 kts | 284° |
| 2026-05-06 04:06 | 44.49290 | -90.91829 | 31014 ft | 314 kts | 284° |
| 2026-05-06 04:06 | 44.50116 | -90.94649 | 30761 ft | 312 kts | 284° |
| 2026-05-06 04:07 | 44.50932 | -90.97432 | 30559 ft | 305 kts | 284° |
| 2026-05-06 04:07 | 44.51731 | -91.00152 | 30282 ft | 299 kts | 284° |
| 2026-05-06 04:07 | 44.52506 | -91.02798 | 29985 ft | 295 kts | 284° |
| 2026-05-06 04:07 | 44.53282 | -91.05453 | 29653 ft | 298 kts | 284° |
| 2026-05-06 04:08 | 44.54083 | -91.08240 | 29339 ft | 318 kts | 284° |
| 2026-05-06 04:08 | 44.54933 | -91.11215 | 29013 ft | 338 kts | 284° |
| 2026-05-06 04:08 | 44.55836 | -91.14368 | 28668 ft | 357 kts | 285° |
| 2026-05-06 04:08 | 44.56780 | -91.17632 | 28306 ft | 363 kts | 285° |
| 2026-05-06 04:09 | 44.57726 | -91.20870 | 27970 ft | 363 kts | 285° |
| 2026-05-06 04:09 | 44.58689 | -91.24148 | 27614 ft | 362 kts | 285° |
| 2026-05-06 04:09 | 44.59647 | -91.27414 | 27252 ft | 360 kts | 285° |
| 2026-05-06 04:09 | 44.60593 | -91.30663 | 26896 ft | 359 kts | 285° |
| 2026-05-06 04:10 | 44.61215 | -91.32807 | 26609 ft | 357 kts | 285° |
| 2026-05-06 04:10 | 44.62148 | -91.36034 | 26125 ft | 355 kts | 285° |
| 2026-05-06 04:10 | 44.63075 | -91.39246 | 25655 ft | 357 kts | 285° |
| 2026-05-06 04:10 | 44.64345 | -91.43695 | 25003 ft | 380 kts | 285° |
| 2026-05-06 04:11 | 44.65015 | -91.46041 | 24646 ft | 384 kts | 286° |
| 2026-05-06 04:11 | 44.66004 | -91.49474 | 24115 ft | 384 kts | 286° |
| 2026-05-06 04:11 | 44.67007 | -91.52950 | 23607 ft | 383 kts | 286° |
| 2026-05-06 04:11 | 44.68007 | -91.56427 | 22986 ft | 384 kts | 286° |
| 2026-05-06 04:12 | 44.69009 | -91.59920 | 22460 ft | 385 kts | 287° |
| 2026-05-06 04:12 | 44.70011 | -91.63415 | 21908 ft | 386 kts | 287° |
| 2026-05-06 04:12 | 44.71004 | -91.66873 | 21380 ft | 386 kts | 287° |
| 2026-05-06 04:12 | 44.72008 | -91.70378 | 20847 ft | 387 kts | 288° |
| 2026-05-06 04:13 | 44.73013 | -91.73894 | 20310 ft | 387 kts | 288° |
| 2026-05-06 04:13 | 44.74011 | -91.77397 | 19895 ft | 377 kts | 288° |
| 2026-05-06 04:13 | 44.74963 | -91.80738 | 19766 ft | 358 kts | 288° |
| 2026-05-06 04:13 | 44.75871 | -91.83924 | 19643 ft | 342 kts | 288° |
| 2026-05-06 04:14 | 44.76731 | -91.86938 | 19385 ft | 331 kts | 288° |
| 2026-05-06 04:14 | 44.77572 | -91.89935 | 18865 ft | 327 kts | 288° |
| 2026-05-06 04:14 | 44.78387 | -91.92929 | 18273 ft | 327 kts | 288° |
| 2026-05-06 04:14 | 44.79194 | -91.95931 | 17595 ft | 328 kts | 288° |
| 2026-05-06 04:15 | 44.80000 | -91.98937 | 16987 ft | 327 kts | 289° |
| 2026-05-06 04:15 | 44.80800 | -92.01920 | 16408 ft | 324 kts | 289° |
| 2026-05-06 04:15 | 44.81598 | -92.04882 | 15848 ft | 322 kts | 289° |
| 2026-05-06 04:15 | 44.82382 | -92.07790 | 15300 ft | 320 kts | 289° |
| 2026-05-06 04:16 | 44.83170 | -92.10715 | 14724 ft | 319 kts | 289° |
| 2026-05-06 04:16 | 44.83959 | -92.13639 | 14257 ft | 318 kts | 289° |
| 2026-05-06 04:16 | 44.84743 | -92.16543 | 13833 ft | 316 kts | 289° |
| 2026-05-06 04:16 | 44.85329 | -92.19515 | 13366 ft | 313 kts | 278° |
| 2026-05-06 04:17 | 44.85537 | -92.22530 | 12954 ft | 312 kts | 275° |
| 2026-05-06 04:17 | 44.85719 | -92.25566 | 12534 ft | 309 kts | 275° |
| 2026-05-06 04:17 | 44.85900 | -92.28581 | 12122 ft | 307 kts | 275° |
| 2026-05-06 04:17 | 44.86080 | -92.31581 | 11712 ft | 306 kts | 275° |
| 2026-05-06 04:18 | 44.86252 | -92.34563 | 11295 ft | 304 kts | 275° |
| 2026-05-06 04:18 | 44.86400 | -92.37484 | 10914 ft | 300 kts | 275° |
| 2026-05-06 04:18 | 44.86535 | -92.40353 | 10783 ft | 286 kts | 275° |
| 2026-05-06 04:18 | 44.86662 | -92.43102 | 10610 ft | 275 kts | 275° |
| 2026-05-06 04:19 | 44.86782 | -92.45765 | 10227 ft | 269 kts | 274° |
| 2026-05-06 04:19 | 44.86644 | -92.48396 | 9665 ft | 269 kts | 261° |
| 2026-05-06 04:19 | 44.86103 | -92.50885 | 9065 ft | 271 kts | 249° |
| 2026-05-06 04:19 | 44.85246 | -92.53254 | 8672 ft | 270 kts | 245° |
| 2026-05-06 04:20 | 44.84377 | -92.55608 | 8264 ft | 270 kts | 246° |
| 2026-05-06 04:20 | 44.83520 | -92.57947 | 7891 ft | 268 kts | 246° |
| 2026-05-06 04:20 | 44.82670 | -92.60276 | 7535 ft | 266 kts | 246° |
| 2026-05-06 04:20 | 44.81828 | -92.62586 | 7179 ft | 264 kts | 246° |
| 2026-05-06 04:21 | 44.80990 | -92.64876 | 6970 ft | 260 kts | 246° |
| 2026-05-06 04:21 | 44.80167 | -92.67116 | 6976 ft | 261 kts | 246° |
| 2026-05-06 04:21 | 44.79339 | -92.69371 | 6971 ft | 253 kts | 246° |
| 2026-05-06 04:21 | 44.78550 | -92.71509 | 6974 ft | 239 kts | 246° |
| 2026-05-06 04:22 | 44.77805 | -92.73524 | 6977 ft | 227 kts | 247° |
| 2026-05-06 04:22 | 44.77301 | -92.75566 | 6978 ft | 215 kts | 264° |
| 2026-05-06 04:22 | 44.77284 | -92.77657 | 6690 ft | 213 kts | 281° |
| 2026-05-06 04:23 | 44.77734 | -92.81722 | 6036 ft | 209 kts | 281° |
| 2026-05-06 04:23 | 44.77948 | -92.83736 | 5726 ft | 207 kts | 281° |
| 2026-05-06 04:23 | 44.78160 | -92.85741 | 5427 ft | 207 kts | 281° |
| 2026-05-06 04:23 | 44.78372 | -92.87746 | 5120 ft | 207 kts | 281° |
| 2026-05-06 04:24 | 44.78582 | -92.89757 | 4816 ft | 208 kts | 281° |
| 2026-05-06 04:24 | 44.78790 | -92.91766 | 4500 ft | 208 kts | 281° |
| 2026-05-06 04:24 | 44.78997 | -92.93774 | 4202 ft | 204 kts | 281° |
| 2026-05-06 04:24 | 44.79191 | -92.95666 | 4137 ft | 190 kts | 281° |
| 2026-05-06 04:25 | 44.79373 | -92.97443 | 4124 ft | 179 kts | 282° |
| 2026-05-06 04:25 | 44.79576 | -92.99156 | 4084 ft | 175 kts | 286° |
| 2026-05-06 04:25 | 44.80009 | -93.00745 | 4149 ft | 174 kts | 298° |
| 2026-05-06 04:25 | 44.80630 | -93.02205 | 3990 ft | 173 kts | 304° |
| 2026-05-06 04:26 | 44.81262 | -93.03620 | 3731 ft | 172 kts | 303° |
| 2026-05-06 04:26 | 44.81864 | -93.05071 | 3503 ft | 171 kts | 304° |
| 2026-05-06 04:26 | 44.82488 | -93.06447 | 3245 ft | 159 kts | 305° |
| 2026-05-06 04:26 | 44.83021 | -93.07682 | 3147 ft | 136 kts | 304° |
| 2026-05-06 04:27 | 44.83497 | -93.08762 | 2955 ft | 125 kts | 306° |
| 2026-05-06 04:27 | 44.83945 | -93.09765 | 2728 ft | 121 kts | 307° |
| 2026-05-06 04:27 | 44.84387 | -93.10762 | 2510 ft | 119 kts | 307° |
| 2026-05-06 04:27 | 44.84804 | -93.11764 | 2283 ft | 118 kts | 306° |
| 2026-05-06 04:28 | 44.85228 | -93.12752 | 2084 ft | 117 kts | 307° |
| 2026-05-06 04:28 | 44.85655 | -93.13713 | 1915 ft | 117 kts | 307° |
| 2026-05-06 04:28 | 44.86086 | -93.14694 | 1715 ft | 118 kts | 306° |
| 2026-05-06 04:28 | 44.86513 | -93.15679 | 1497 ft | 118 kts | 304° |
| 2026-05-06 04:29 | 44.86940 | -93.16662 | 1323 ft | 117 kts | 303° |
| 2026-05-06 04:29 | 44.87366 | -93.17638 | 1173 ft | 116 kts | 303° |
| 2026-05-06 04:29 | 44.87786 | -93.18614 | 1020 ft | 116 kts | 303° |
| 2026-05-06 04:29 | 44.88208 | -93.19589 | 837 ft | 116 kts | 303° |
| 2026-05-06 04:30 | 44.88564 | -93.20411 | 824 ft | 79 kts | 301° |
| 2026-05-06 04:30 | 44.88762 | -93.20870 | 824 ft | 31 kts | 301° |
| 2026-05-06 04:30 | 44.88837 | -93.21060 | 826 ft | 14 kts | 277° |
| 2026-05-06 04:30 | 44.88810 | -93.21197 | 823 ft | 11 kts | 255° |
| 2026-05-06 04:31 | 44.88805 | -93.21225 | 825 ft | 0 kts | 256° |
| 2026-05-06 04:32 | 44.88803 | -93.21233 | 825 ft | 3 kts | 252° |
| 2026-05-06 04:32 | 44.88789 | -93.21270 | 824 ft | 6 kts | 234° |
| 2026-05-06 04:32 | 44.88753 | -93.21324 | 825 ft | 9 kts | 225° |
| 2026-05-06 04:33 | 44.88699 | -93.21399 | 826 ft | 12 kts | 224° |
| 2026-05-06 04:33 | 44.88630 | -93.21494 | 823 ft | 16 kts | 225° |
| 2026-05-06 04:33 | 44.88558 | -93.21598 | 823 ft | 9 kts | 227° |
| 2026-05-06 04:33 | 44.88500 | -93.21597 | 826 ft | 11 kts | 127° |
| 2026-05-06 04:34 | 44.88471 | -93.21479 | 825 ft | 14 kts | 91° |
| 2026-05-06 04:34 | 44.88502 | -93.21386 | 824 ft | 6 kts | 57° |
| 2026-05-06 04:34 | 44.88511 | -93.21368 | 822 ft | 0 kts | 57° |